New Harbor, ME (Heathkit)

43° 52' 34"N, 69° 29' 40"W, Elevation 65 ft.
Eastern Time

Hourly observations for the last 72 hours

Date Time Temperature (°F) Humi-
dity

(%)
Wind
(mph)
Pressure Rain (in)
Air Dew 6 Hour 1 Hr 3 Hr 6 Hr Day
Alt
(in)
Sea
Level

(mb)
Max Min
22 22:00 55 49 79 SE 2 G 4 30.31 1026.4 0.00
22 21:00 54 48 79 ESE 4 G 8 30.31 1026.4 0.00
22 20:00 54 48 60 48 79 ESE 3 G 7 30.31 1026.4 0.00
22 19:00 53 47 79 ESE 4 G 9 30.31 1026.4 0.00
22 18:00 53 47 80 E 5 G 10 30.32 1026.8 0.00
22 17:00 54 48 79 ESE 4 G 12 30.33 1027.1 0.00
22 16:00 55 49 79 ESE 4 G 11 30.32 1026.8 0.00
22 15:00 55 49 80 E 5 G 14 30.32 1026.8 0.00
22 14:00 60 53 62 49 78 ESE 3 G 10 30.32 1026.8 0.00
22 13:00 59 53 79 E 5 G 14 30.33 1027.1 0.00
22 12:00 61 47 60 ESE 4 G 12 30.33 1027.1 0.00
22 11:00 58 45 62 SE 2 G 13 30.34 1027.5 0.00
22 10:00 56 43 61 E 8 G 14 30.33 1027.1 0.00
22 09:00 54 41 61 E 6 G 11 30.33 1027.1 0.00
22 08:00 53 39 53 46 60 ESE 5 G 9 30.30 1026.1 0.00
22 07:00 52 45 76 E 5 G 10 30.27 1025.1 0.00
22 06:00 52 45 77 ESE 2 G 6 30.25 1024.4 0.00
22 05:00 51 44 77 E 3 G 7 30.24 1024.1 0.00
22 04:00 49 43 79 S 2 G 2 30.22 1023.4 0.00
22 03:00 50 43 77 ESE 3 G 5 30.21 1023.1 0.00
22 02:00 50 42 52 43 74 S 1 G 4 30.19 1022.4 0.00
22 01:00 50 43 77 SSE 1 G 2 30.18 1022.0 0.00
22 00:00 50 36 59 SW 1 G 1 30.18 1022.0 0.00
21 23:00 51 38 62 SE 0 G 1 30.18 1022.0 0.00
21 22:00 52 44 74 SSE 0 G 1 30.18 1022.0 0.00
21 21:00 50 37 60 ESE 0 G 2 30.16 1021.4 0.00
21 20:00 51 38 66 48 62 ESE 0 G 2 30.16 1021.4 0.00
21 19:00 53 45 74 ESE 1 G 1 30.14 1020.7 0.00
21 18:00 57 51 80 SSE 0 G 1 30.14 1020.7 0.00
21 17:00 59 53 80 SSE 1 G 6 30.13 1020.4 0.00
21 16:00 62 55 77 S 3 G 6 30.11 1019.7 0.00
21 15:00 61 54 78 S 5 G 8 30.12 1020.0 0.00
21 14:00 66 59 67 42 79 SSE 3 G 7 30.11 1019.7 0.00
21 13:00 65 58 78 ESE 1 G 2 30.11 1019.7 0.00
21 12:00 64 57 77 ESE 1 G 2 30.12 1020.0 0.00
21 11:00 60 53 78 SSE 1 G 3 30.13 1020.4 0.00
21 10:00 55 49 80 E 1 G 3 30.13 1020.4 0.00
21 09:00 52 46 79 E 1 G 3 30.12 1020.0 0.00
21 08:00 46 39 46 41 76 SE 1 G 1 30.10 1019.3 0.00
21 07:00 45 32 59 SW 1 G 3 30.08 1018.7 0.00
21 06:00 45 32 61 SSW 2 G 3 30.07 1018.3 0.00
21 05:00 45 32 61 S 2 G 3 30.06 1018.0 0.00
21 04:00 46 38 73 S 2 G 4 30.03 1017.0 0.00
21 03:00 46 40 80 S 2 G 3 30.02 1016.6 0.00
21 02:00 46 40 55 41 78 S 1 G 2 30.01 1016.3 0.00
21 01:00 46 39 77 ESE 2 G 3 30.00 1016.0 0.00
21 00:00 48 41 78 S 0 G 1 29.98 1015.3 0.00
20 23:00 50 42 75 SSE 1 G 2 29.96 1014.6 0.00
20 22:00 54 48 79 ESE 2 G 6 29.93 1013.6 0.00
20 21:00 53 47 79 S 2 G 5 29.92 1013.2 0.00
20 20:00 55 48 68 54 76 SSE 2 G 6 29.88 1011.9 0.00
20 19:00 60 53 77 S 3 G 6 29.87 1011.5 0.00
20 18:00 61 54 79 S 2 G 6 29.84 1010.5 0.00
20 17:00 65 59 80 S 1 G 9 29.80 1009.2 0.00
20 16:00 67 61 80 SSW 2 G 12 29.79 1008.8 0.00
20 15:00 67 51 56 SSW 4 G 14 29.78 1008.5 0.00
20 14:00 67 52 68 46 58 SSW 7 G 16 29.78 1008.5 0.00
20 13:00 67 61 80 SSW 4 G 16 29.81 1009.5 0.00
20 12:00 67 61 80 SW 5 G 12 29.83 1010.2 0.00
20 11:00 63 48 57 S 5 G 13 29.85 1010.9 0.00
20 10:00 60 44 56 S 6 G 15 29.86 1011.2 0.00
20 09:00 55 40 56 SSW 3 G 7 29.85 1010.9 0.00
20 08:00 48 33 57 44 57 ESE 2 G 3 29.84 1010.5 0.00
20 07:00 48 32 54 S 1 G 3 29.81 1009.5 0.00
20 06:00 50 34 54 SSE 1 G 4 29.80 1009.2 0.00
20 05:00 51 35 54 ESE 1 G 2 29.78 1008.5 0.00
20 04:00 53 37 54 SE 1 G 2 29.77 1008.2 0.00
20 03:00 55 39 54 SW 2 G 4 29.76 1007.8 0.00
20 02:00 57 41 59 53 56 SSW 1 G 6 29.77 1008.2 0.00
20 01:00 57 41 55 S 4 G 13 29.76 1007.8 0.00
20 00:00 58 42 55 SSW 5 G 14 29.76 1007.8 0.00
19 23:00 58 56 92 S 5 G 10 29.78 1008.5 0.00

Data generated by WxSolution Version 1.9.0.8, Build 2017.07.06.